sensor_id;sensor_type;location;lat;lon;timestamp;P1;durP1;ratioP1;P2;durP2;ratioP2
32152;SDS011;18656;50.580;11.392;2023-12-20T00:00:36;0.20;;;0.20;;
32152;SDS011;18656;50.580;11.392;2023-12-20T00:03:04;0.20;;;0.20;;
32152;SDS011;18656;50.580;11.392;2023-12-20T00:05:31;0.20;;;0.20;;
32152;SDS011;18656;50.580;11.392;2023-12-20T00:07:59;0.20;;;0.20;;
32152;SDS011;18656;50.580;11.392;2023-12-20T00:10:27;0.20;;;0.20;;
32152;SDS011;18656;50.580;11.392;2023-12-20T00:12:54;0.20;;;0.20;;
32152;SDS011;18656;50.580;11.392;2023-12-20T00:15:21;0.30;;;0.30;;
32152;SDS011;18656;50.580;11.392;2023-12-20T00:17:48;0.47;;;0.10;;
32152;SDS011;18656;50.580;11.392;2023-12-20T00:20:16;0.20;;;0.20;;
32152;SDS011;18656;50.580;11.392;2023-12-20T00:22:43;0.40;;;0.40;;
32152;SDS011;18656;50.580;11.392;2023-12-20T00:25:10;0.10;;;0.10;;
32152;SDS011;18656;50.580;11.392;2023-12-20T00:27:38;0.10;;;0.10;;
32152;SDS011;18656;50.580;11.392;2023-12-20T00:30:05;0.17;;;0.17;;
32152;SDS011;18656;50.580;11.392;2023-12-20T00:32:32;0.20;;;0.20;;
32152;SDS011;18656;50.580;11.392;2023-12-20T00:35:00;0.10;;;0.10;;
32152;SDS011;18656;50.580;11.392;2023-12-20T00:37:27;0.10;;;0.10;;
32152;SDS011;18656;50.580;11.392;2023-12-20T00:39:54;0.32;;;0.10;;
32152;SDS011;18656;50.580;11.392;2023-12-20T00:42:21;0.10;;;0.10;;
32152;SDS011;18656;50.580;11.392;2023-12-20T00:44:49;0.38;;;0.10;;
32152;SDS011;18656;50.580;11.392;2023-12-20T00:47:17;1.02;;;0.17;;
32152;SDS011;18656;50.580;11.392;2023-12-20T00:49:44;0.10;;;0.10;;
32152;SDS011;18656;50.580;11.392;2023-12-20T00:52:11;0.10;;;0.10;;
32152;SDS011;18656;50.580;11.392;2023-12-20T00:54:38;0.20;;;0.10;;
32152;SDS011;18656;50.580;11.392;2023-12-20T00:57:06;0.10;;;0.10;;
32152;SDS011;18656;50.580;11.392;2023-12-20T00:59:33;0.10;;;0.10;;
32152;SDS011;18656;50.580;11.392;2023-12-20T01:02:00;0.03;;;0.03;;
32152;SDS011;18656;50.580;11.392;2023-12-20T01:04:27;0.20;;;0.20;;
32152;SDS011;18656;50.580;11.392;2023-12-20T01:06:54;0.10;;;0.10;;
32152;SDS011;18656;50.580;11.392;2023-12-20T01:09:22;0.20;;;0.10;;
32152;SDS011;18656;50.580;11.392;2023-12-20T01:11:55;0.08;;;0.08;;
32152;SDS011;18656;50.580;11.392;2023-12-20T01:14:22;0.00;;;0.00;;
32152;SDS011;18656;50.580;11.392;2023-12-20T01:16:49;0.20;;;0.20;;
32152;SDS011;18656;50.580;11.392;2023-12-20T01:19:16;0.32;;;0.10;;
32152;SDS011;18656;50.580;11.392;2023-12-20T01:21:44;0.17;;;0.17;;
32152;SDS011;18656;50.580;11.392;2023-12-20T01:24:11;0.20;;;0.20;;
32152;SDS011;18656;50.580;11.392;2023-12-20T01:26:38;0.08;;;0.08;;
32152;SDS011;18656;50.580;11.392;2023-12-20T01:29:05;0.10;;;0.10;;
32152;SDS011;18656;50.580;11.392;2023-12-20T01:31:33;0.13;;;0.13;;
32152;SDS011;18656;50.580;11.392;2023-12-20T01:34:00;0.40;;;0.00;;
32152;SDS011;18656;50.580;11.392;2023-12-20T01:36:27;0.17;;;0.10;;
32152;SDS011;18656;50.580;11.392;2023-12-20T01:38:55;0.10;;;0.10;;
32152;SDS011;18656;50.580;11.392;2023-12-20T01:41:22;0.28;;;0.10;;
32152;SDS011;18656;50.580;11.392;2023-12-20T01:43:50;0.10;;;0.10;;
32152;SDS011;18656;50.580;11.392;2023-12-20T01:46:20;0.15;;;0.15;;
32152;SDS011;18656;50.580;11.392;2023-12-20T01:48:48;0.25;;;0.17;;
32152;SDS011;18656;50.580;11.392;2023-12-20T01:51:16;0.55;;;0.20;;
32152;SDS011;18656;50.580;11.392;2023-12-20T01:53:44;0.32;;;0.05;;
32152;SDS011;18656;50.580;11.392;2023-12-20T01:56:11;0.55;;;0.32;;
32152;SDS011;18656;50.580;11.392;2023-12-20T01:58:44;1.67;;;0.40;;
32152;SDS011;18656;50.580;11.392;2023-12-20T02:01:12;0.40;;;0.30;;
32152;SDS011;18656;50.580;11.392;2023-12-20T02:03:43;0.20;;;0.10;;
32152;SDS011;18656;50.580;11.392;2023-12-20T02:06:10;0.10;;;0.10;;
32152;SDS011;18656;50.580;11.392;2023-12-20T02:08:38;1.50;;;0.28;;
32152;SDS011;18656;50.580;11.392;2023-12-20T02:11:06;0.15;;;0.15;;
32152;SDS011;18656;50.580;11.392;2023-12-20T02:13:34;0.47;;;0.22;;
32152;SDS011;18656;50.580;11.392;2023-12-20T02:16:01;0.20;;;0.20;;
32152;SDS011;18656;50.580;11.392;2023-12-20T02:18:29;0.10;;;0.10;;
32152;SDS011;18656;50.580;11.392;2023-12-20T02:20:57;0.28;;;0.20;;
32152;SDS011;18656;50.580;11.392;2023-12-20T02:23:24;0.25;;;0.20;;
32152;SDS011;18656;50.580;11.392;2023-12-20T02:25:52;0.15;;;0.10;;
32152;SDS011;18656;50.580;11.392;2023-12-20T02:28:19;0.32;;;0.20;;
32152;SDS011;18656;50.580;11.392;2023-12-20T02:30:48;0.10;;;0.10;;
32152;SDS011;18656;50.580;11.392;2023-12-20T02:33:16;0.10;;;0.10;;
32152;SDS011;18656;50.580;11.392;2023-12-20T02:35:43;1.45;;;0.10;;
32152;SDS011;18656;50.580;11.392;2023-12-20T02:38:11;0.10;;;0.10;;
32152;SDS011;18656;50.580;11.392;2023-12-20T02:40:38;0.30;;;0.30;;
32152;SDS011;18656;50.580;11.392;2023-12-20T02:43:14;0.40;;;0.20;;
32152;SDS011;18656;50.580;11.392;2023-12-20T02:45:41;0.45;;;0.10;;
32152;SDS011;18656;50.580;11.392;2023-12-20T02:48:09;0.10;;;0.10;;
32152;SDS011;18656;50.580;11.392;2023-12-20T02:50:36;0.20;;;0.20;;
32152;SDS011;18656;50.580;11.392;2023-12-20T02:53:04;0.10;;;0.10;;
32152;SDS011;18656;50.580;11.392;2023-12-20T02:55:31;0.10;;;0.10;;
32152;SDS011;18656;50.580;11.392;2023-12-20T02:57:59;0.52;;;0.15;;
32152;SDS011;18656;50.580;11.392;2023-12-20T03:00:26;0.15;;;0.15;;
32152;SDS011;18656;50.580;11.392;2023-12-20T03:02:54;0.30;;;0.20;;
32152;SDS011;18656;50.580;11.392;2023-12-20T03:05:21;0.25;;;0.10;;
32152;SDS011;18656;50.580;11.392;2023-12-20T03:07:49;0.20;;;0.20;;
32152;SDS011;18656;50.580;11.392;2023-12-20T03:10:16;0.43;;;0.32;;
32152;SDS011;18656;50.580;11.392;2023-12-20T03:12:52;1.95;;;0.32;;
32152;SDS011;18656;50.580;11.392;2023-12-20T03:15:19;0.30;;;0.30;;
32152;SDS011;18656;50.580;11.392;2023-12-20T03:17:47;0.95;;;0.10;;
32152;SDS011;18656;50.580;11.392;2023-12-20T03:20:15;0.55;;;0.30;;
32152;SDS011;18656;50.580;11.392;2023-12-20T03:22:42;0.20;;;0.20;;
32152;SDS011;18656;50.580;11.392;2023-12-20T03:25:10;0.15;;;0.10;;
32152;SDS011;18656;50.580;11.392;2023-12-20T03:27:37;0.57;;;0.30;;
32152;SDS011;18656;50.580;11.392;2023-12-20T03:30:05;0.20;;;0.20;;
32152;SDS011;18656;50.580;11.392;2023-12-20T03:32:33;0.43;;;0.10;;
32152;SDS011;18656;50.580;11.392;2023-12-20T03:35:00;0.20;;;0.20;;
32152;SDS011;18656;50.580;11.392;2023-12-20T03:37:28;0.85;;;0.20;;
32152;SDS011;18656;50.580;11.392;2023-12-20T03:39:56;0.30;;;0.30;;
32152;SDS011;18656;50.580;11.392;2023-12-20T03:42:23;0.30;;;0.20;;
32152;SDS011;18656;50.580;11.392;2023-12-20T03:44:50;0.50;;;0.20;;
32152;SDS011;18656;50.580;11.392;2023-12-20T03:47:18;0.30;;;0.30;;
32152;SDS011;18656;50.580;11.392;2023-12-20T03:49:45;0.50;;;0.45;;
32152;SDS011;18656;50.580;11.392;2023-12-20T03:52:13;0.73;;;0.38;;
32152;SDS011;18656;50.580;11.392;2023-12-20T03:54:41;3.50;;;0.38;;
32152;SDS011;18656;50.580;11.392;2023-12-20T03:57:09;0.20;;;0.20;;
32152;SDS011;18656;50.580;11.392;2023-12-20T03:59:36;0.20;;;0.20;;
32152;SDS011;18656;50.580;11.392;2023-12-20T04:02:04;0.25;;;0.20;;
32152;SDS011;18656;50.580;11.392;2023-12-20T04:04:32;0.20;;;0.20;;
32152;SDS011;18656;50.580;11.392;2023-12-20T04:06:59;0.68;;;0.20;;
32152;SDS011;18656;50.580;11.392;2023-12-20T04:09:27;0.55;;;0.20;;
32152;SDS011;18656;50.580;11.392;2023-12-20T04:11:55;0.10;;;0.10;;
32152;SDS011;18656;50.580;11.392;2023-12-20T04:14:22;1.75;;;0.30;;
32152;SDS011;18656;50.580;11.392;2023-12-20T04:16:51;0.20;;;0.15;;
32152;SDS011;18656;50.580;11.392;2023-12-20T04:19:18;0.15;;;0.10;;
32152;SDS011;18656;50.580;11.392;2023-12-20T04:21:46;1.10;;;0.10;;
32152;SDS011;18656;50.580;11.392;2023-12-20T04:24:14;0.10;;;0.10;;
32152;SDS011;18656;50.580;11.392;2023-12-20T04:26:41;0.10;;;0.10;;
32152;SDS011;18656;50.580;11.392;2023-12-20T04:29:09;1.00;;;0.30;;
32152;SDS011;18656;50.580;11.392;2023-12-20T04:31:36;0.20;;;0.20;;
32152;SDS011;18656;50.580;11.392;2023-12-20T04:34:03;0.40;;;0.40;;
32152;SDS011;18656;50.580;11.392;2023-12-20T04:36:31;0.32;;;0.32;;
32152;SDS011;18656;50.580;11.392;2023-12-20T04:38:58;0.20;;;0.20;;
32152;SDS011;18656;50.580;11.392;2023-12-20T04:41:26;0.60;;;0.40;;
32152;SDS011;18656;50.580;11.392;2023-12-20T04:43:54;0.30;;;0.30;;
32152;SDS011;18656;50.580;11.392;2023-12-20T04:46:21;0.45;;;0.45;;
32152;SDS011;18656;50.580;11.392;2023-12-20T04:48:49;0.40;;;0.40;;
32152;SDS011;18656;50.580;11.392;2023-12-20T04:51:16;1.02;;;0.40;;
32152;SDS011;18656;50.580;11.392;2023-12-20T04:53:43;0.55;;;0.55;;
32152;SDS011;18656;50.580;11.392;2023-12-20T04:56:11;0.52;;;0.50;;
32152;SDS011;18656;50.580;11.392;2023-12-20T04:58:38;0.32;;;0.32;;
32152;SDS011;18656;50.580;11.392;2023-12-20T05:01:06;2.00;;;0.40;;
32152;SDS011;18656;50.580;11.392;2023-12-20T05:03:34;1.25;;;0.57;;
32152;SDS011;18656;50.580;11.392;2023-12-20T05:06:01;1.20;;;0.40;;
32152;SDS011;18656;50.580;11.392;2023-12-20T05:08:28;0.65;;;0.50;;
32152;SDS011;18656;50.580;11.392;2023-12-20T05:10:56;0.70;;;0.70;;
32152;SDS011;18656;50.580;11.392;2023-12-20T05:13:23;0.60;;;0.60;;
32152;SDS011;18656;50.580;11.392;2023-12-20T05:16:03;1.67;;;1.58;;
32152;SDS011;18656;50.580;11.392;2023-12-20T05:18:31;1.88;;;1.77;;
32152;SDS011;18656;50.580;11.392;2023-12-20T05:20:58;1.80;;;1.70;;
32152;SDS011;18656;50.580;11.392;2023-12-20T05:23:26;1.42;;;1.42;;
32152;SDS011;18656;50.580;11.392;2023-12-20T05:25:53;2.33;;;2.22;;
32152;SDS011;18656;50.580;11.392;2023-12-20T05:28:21;1.35;;;1.30;;
32152;SDS011;18656;50.580;11.392;2023-12-20T05:30:48;2.25;;;1.80;;
32152;SDS011;18656;50.580;11.392;2023-12-20T05:33:16;1.75;;;1.65;;
32152;SDS011;18656;50.580;11.392;2023-12-20T05:35:43;1.17;;;1.15;;
32152;SDS011;18656;50.580;11.392;2023-12-20T05:38:11;1.05;;;0.50;;
32152;SDS011;18656;50.580;11.392;2023-12-20T05:40:38;0.80;;;0.80;;
32152;SDS011;18656;50.580;11.392;2023-12-20T05:43:06;6.10;;;4.43;;
32152;SDS011;18656;50.580;11.392;2023-12-20T05:45:33;22.33;;;12.63;;
32152;SDS011;18656;50.580;11.392;2023-12-20T05:48:01;13.50;;;8.35;;
32152;SDS011;18656;50.580;11.392;2023-12-20T05:50:28;10.45;;;7.07;;
32152;SDS011;18656;50.580;11.392;2023-12-20T05:52:56;4.57;;;3.53;;
32152;SDS011;18656;50.580;11.392;2023-12-20T05:55:23;4.38;;;3.33;;
32152;SDS011;18656;50.580;11.392;2023-12-20T05:57:52;2.25;;;2.15;;
32152;SDS011;18656;50.580;11.392;2023-12-20T06:00:19;1.55;;;1.45;;
32152;SDS011;18656;50.580;11.392;2023-12-20T06:02:47;1.67;;;0.82;;
32152;SDS011;18656;50.580;11.392;2023-12-20T06:05:14;1.48;;;1.38;;
32152;SDS011;18656;50.580;11.392;2023-12-20T06:07:42;2.35;;;1.45;;
32152;SDS011;18656;50.580;11.392;2023-12-20T06:10:10;14.80;;;7.30;;
32152;SDS011;18656;50.580;11.392;2023-12-20T06:12:37;7.55;;;4.55;;
32152;SDS011;18656;50.580;11.392;2023-12-20T06:15:05;8.40;;;5.40;;
32152;SDS011;18656;50.580;11.392;2023-12-20T06:17:33;2.50;;;2.40;;
32152;SDS011;18656;50.580;11.392;2023-12-20T06:20:01;3.95;;;2.72;;
32152;SDS011;18656;50.580;11.392;2023-12-20T06:22:29;2.17;;;1.63;;
32152;SDS011;18656;50.580;11.392;2023-12-20T06:24:57;1.48;;;1.48;;
32152;SDS011;18656;50.580;11.392;2023-12-20T06:27:25;1.65;;;1.55;;
32152;SDS011;18656;50.580;11.392;2023-12-20T06:29:52;1.85;;;1.60;;
32152;SDS011;18656;50.580;11.392;2023-12-20T06:32:19;1.00;;;1.00;;
32152;SDS011;18656;50.580;11.392;2023-12-20T06:34:47;0.70;;;0.70;;
32152;SDS011;18656;50.580;11.392;2023-12-20T06:37:14;0.80;;;0.80;;
32152;SDS011;18656;50.580;11.392;2023-12-20T06:39:41;0.70;;;0.70;;
32152;SDS011;18656;50.580;11.392;2023-12-20T06:42:09;1.45;;;1.35;;
32152;SDS011;18656;50.580;11.392;2023-12-20T06:44:36;1.50;;;1.40;;
32152;SDS011;18656;50.580;11.392;2023-12-20T06:47:03;3.17;;;1.60;;
32152;SDS011;18656;50.580;11.392;2023-12-20T06:49:31;4.00;;;1.10;;
32152;SDS011;18656;50.580;11.392;2023-12-20T06:51:58;1.95;;;1.60;;
32152;SDS011;18656;50.580;11.392;2023-12-20T06:54:25;1.60;;;1.30;;
32152;SDS011;18656;50.580;11.392;2023-12-20T06:56:52;2.00;;;1.80;;
32152;SDS011;18656;50.580;11.392;2023-12-20T06:59:20;2.22;;;2.00;;
32152;SDS011;18656;50.580;11.392;2023-12-20T07:01:48;2.17;;;1.98;;
32152;SDS011;18656;50.580;11.392;2023-12-20T07:04:16;5.05;;;1.80;;
32152;SDS011;18656;50.580;11.392;2023-12-20T07:06:48;2.03;;;1.30;;
32152;SDS011;18656;50.580;11.392;2023-12-20T07:09:23;1.80;;;1.27;;
32152;SDS011;18656;50.580;11.392;2023-12-20T07:11:50;4.80;;;1.00;;
32152;SDS011;18656;50.580;11.392;2023-12-20T07:14:17;5.50;;;1.60;;
32152;SDS011;18656;50.580;11.392;2023-12-20T07:16:45;3.38;;;2.42;;
32152;SDS011;18656;50.580;11.392;2023-12-20T07:19:13;3.13;;;1.85;;
32152;SDS011;18656;50.580;11.392;2023-12-20T07:21:40;7.80;;;1.95;;
32152;SDS011;18656;50.580;11.392;2023-12-20T07:24:07;3.88;;;3.50;;
32152;SDS011;18656;50.580;11.392;2023-12-20T07:26:35;1.02;;;0.90;;
32152;SDS011;18656;50.580;11.392;2023-12-20T07:29:04;1.75;;;1.40;;
32152;SDS011;18656;50.580;11.392;2023-12-20T07:31:31;1.17;;;1.05;;
32152;SDS011;18656;50.580;11.392;2023-12-20T07:33:58;2.50;;;2.30;;
32152;SDS011;18656;50.580;11.392;2023-12-20T07:36:26;1.90;;;1.80;;
32152;SDS011;18656;50.580;11.392;2023-12-20T07:38:54;0.93;;;0.93;;
32152;SDS011;18656;50.580;11.392;2023-12-20T07:41:21;1.80;;;1.35;;
32152;SDS011;18656;50.580;11.392;2023-12-20T07:43:49;2.45;;;1.60;;
32152;SDS011;18656;50.580;11.392;2023-12-20T07:46:17;1.73;;;1.33;;
32152;SDS011;18656;50.580;11.392;2023-12-20T07:48:49;1.70;;;1.58;;
32152;SDS011;18656;50.580;11.392;2023-12-20T07:51:16;1.95;;;1.60;;
32152;SDS011;18656;50.580;11.392;2023-12-20T07:53:44;2.03;;;1.92;;
32152;SDS011;18656;50.580;11.392;2023-12-20T07:56:15;3.33;;;2.50;;
32152;SDS011;18656;50.580;11.392;2023-12-20T07:58:43;4.28;;;2.38;;
32152;SDS011;18656;50.580;11.392;2023-12-20T08:01:18;3.40;;;3.10;;
32152;SDS011;18656;50.580;11.392;2023-12-20T08:03:48;5.72;;;1.80;;
32152;SDS011;18656;50.580;11.392;2023-12-20T08:06:15;3.53;;;3.22;;
32152;SDS011;18656;50.580;11.392;2023-12-20T08:08:44;7.00;;;3.58;;
32152;SDS011;18656;50.580;11.392;2023-12-20T08:11:20;3.55;;;3.25;;
32152;SDS011;18656;50.580;11.392;2023-12-20T08:13:48;3.35;;;3.05;;
32152;SDS011;18656;50.580;11.392;2023-12-20T08:16:16;2.45;;;2.20;;
32152;SDS011;18656;50.580;11.392;2023-12-20T08:18:44;2.20;;;2.00;;
32152;SDS011;18656;50.580;11.392;2023-12-20T08:21:11;3.70;;;2.92;;
32152;SDS011;18656;50.580;11.392;2023-12-20T08:23:39;8.52;;;7.07;;
32152;SDS011;18656;50.580;11.392;2023-12-20T08:26:10;7.82;;;7.05;;
32152;SDS011;18656;50.580;11.392;2023-12-20T08:28:37;5.25;;;4.28;;
32152;SDS011;18656;50.580;11.392;2023-12-20T08:31:05;12.93;;;10.32;;
32152;SDS011;18656;50.580;11.392;2023-12-20T08:33:33;4.88;;;4.35;;
32152;SDS011;18656;50.580;11.392;2023-12-20T08:36:01;4.53;;;4.13;;
32152;SDS011;18656;50.580;11.392;2023-12-20T08:38:31;4.47;;;3.70;;
32152;SDS011;18656;50.580;11.392;2023-12-20T08:40:59;9.07;;;4.68;;
32152;SDS011;18656;50.580;11.392;2023-12-20T08:43:27;5.82;;;5.22;;
32152;SDS011;18656;50.580;11.392;2023-12-20T08:45:55;8.65;;;7.25;;
32152;SDS011;18656;50.580;11.392;2023-12-20T08:48:23;66.50;;;45.50;;
32152;SDS011;18656;50.580;11.392;2023-12-20T08:50:50;55.15;;;38.42;;
32152;SDS011;18656;50.580;11.392;2023-12-20T08:53:18;37.35;;;26.83;;
32152;SDS011;18656;50.580;11.392;2023-12-20T08:55:46;23.50;;;17.85;;
32152;SDS011;18656;50.580;11.392;2023-12-20T08:58:13;29.52;;;23.05;;
32152;SDS011;18656;50.580;11.392;2023-12-20T09:00:41;35.28;;;25.85;;
32152;SDS011;18656;50.580;11.392;2023-12-20T09:03:08;19.85;;;15.75;;
32152;SDS011;18656;50.580;11.392;2023-12-20T09:05:36;25.13;;;16.83;;
32152;SDS011;18656;50.580;11.392;2023-12-20T09:08:03;19.40;;;14.15;;
32152;SDS011;18656;50.580;11.392;2023-12-20T09:10:30;15.75;;;11.35;;
32152;SDS011;18656;50.580;11.392;2023-12-20T09:12:58;11.38;;;7.88;;
32152;SDS011;18656;50.580;11.392;2023-12-20T09:15:26;9.35;;;8.23;;
32152;SDS011;18656;50.580;11.392;2023-12-20T09:17:53;11.02;;;8.95;;
32152;SDS011;18656;50.580;11.392;2023-12-20T09:20:20;13.93;;;11.13;;
32152;SDS011;18656;50.580;11.392;2023-12-20T09:22:50;15.15;;;8.93;;
32152;SDS011;18656;50.580;11.392;2023-12-20T09:25:17;11.77;;;8.93;;
32152;SDS011;18656;50.580;11.392;2023-12-20T09:27:44;9.57;;;8.35;;
32152;SDS011;18656;50.580;11.392;2023-12-20T09:30:12;14.60;;;8.70;;
32152;SDS011;18656;50.580;11.392;2023-12-20T09:32:52;9.15;;;8.05;;
32152;SDS011;18656;50.580;11.392;2023-12-20T09:35:20;17.75;;;10.70;;
32152;SDS011;18656;50.580;11.392;2023-12-20T09:37:47;16.33;;;11.52;;
32152;SDS011;18656;50.580;11.392;2023-12-20T09:40:15;15.05;;;10.55;;
32152;SDS011;18656;50.580;11.392;2023-12-20T09:42:48;16.65;;;10.10;;
32152;SDS011;18656;50.580;11.392;2023-12-20T09:45:19;12.35;;;8.95;;
32152;SDS011;18656;50.580;11.392;2023-12-20T09:47:49;8.05;;;4.10;;
32152;SDS011;18656;50.580;11.392;2023-12-20T09:50:20;9.05;;;4.00;;
32152;SDS011;18656;50.580;11.392;2023-12-20T09:52:52;4.78;;;2.97;;
32152;SDS011;18656;50.580;11.392;2023-12-20T09:55:20;6.60;;;4.80;;
32152;SDS011;18656;50.580;11.392;2023-12-20T09:57:48;4.82;;;2.42;;
32152;SDS011;18656;50.580;11.392;2023-12-20T10:00:15;5.15;;;3.60;;
32152;SDS011;18656;50.580;11.392;2023-12-20T10:02:50;3.22;;;2.30;;
32152;SDS011;18656;50.580;11.392;2023-12-20T10:05:17;5.47;;;3.10;;
32152;SDS011;18656;50.580;11.392;2023-12-20T10:07:46;7.47;;;3.88;;
32152;SDS011;18656;50.580;11.392;2023-12-20T10:10:15;6.85;;;3.65;;
32152;SDS011;18656;50.580;11.392;2023-12-20T10:12:46;6.57;;;3.65;;
32152;SDS011;18656;50.580;11.392;2023-12-20T10:15:28;6.15;;;2.20;;
32152;SDS011;18656;50.580;11.392;2023-12-20T10:17:55;3.40;;;1.50;;
32152;SDS011;18656;50.580;11.392;2023-12-20T10:20:28;3.65;;;1.08;;
32152;SDS011;18656;50.580;11.392;2023-12-20T10:22:56;4.57;;;1.73;;
32152;SDS011;18656;50.580;11.392;2023-12-20T10:25:23;5.95;;;1.98;;
32152;SDS011;18656;50.580;11.392;2023-12-20T10:28:08;5.00;;;1.92;;
32152;SDS011;18656;50.580;11.392;2023-12-20T10:30:36;6.00;;;2.20;;
32152;SDS011;18656;50.580;11.392;2023-12-20T10:33:05;4.20;;;1.50;;
32152;SDS011;18656;50.580;11.392;2023-12-20T10:35:32;2.88;;;1.23;;
32152;SDS011;18656;50.580;11.392;2023-12-20T10:38:01;6.15;;;1.42;;
32152;SDS011;18656;50.580;11.392;2023-12-20T10:40:30;6.50;;;1.75;;
32152;SDS011;18656;50.580;11.392;2023-12-20T10:42:57;2.47;;;1.60;;
32152;SDS011;18656;50.580;11.392;2023-12-20T10:45:25;3.03;;;2.10;;
32152;SDS011;18656;50.580;11.392;2023-12-20T10:47:53;4.80;;;1.85;;
32152;SDS011;18656;50.580;11.392;2023-12-20T10:50:20;4.10;;;1.70;;
32152;SDS011;18656;50.580;11.392;2023-12-20T10:52:47;3.35;;;1.50;;
32152;SDS011;18656;50.580;11.392;2023-12-20T10:55:15;4.95;;;1.92;;
32152;SDS011;18656;50.580;11.392;2023-12-20T10:57:42;5.47;;;2.42;;
32152;SDS011;18656;50.580;11.392;2023-12-20T11:00:12;3.72;;;2.55;;
32152;SDS011;18656;50.580;11.392;2023-12-20T11:02:41;4.40;;;1.70;;
32152;SDS011;18656;50.580;11.392;2023-12-20T11:10:51;4.13;;;1.65;;
32152;SDS011;18656;50.580;11.392;2023-12-20T11:13:23;4.07;;;1.55;;
32152;SDS011;18656;50.580;11.392;2023-12-20T11:15:53;4.30;;;2.20;;
32152;SDS011;18656;50.580;11.392;2023-12-20T11:18:27;6.20;;;2.53;;
32152;SDS011;18656;50.580;11.392;2023-12-20T11:20:55;4.53;;;2.50;;
32152;SDS011;18656;50.580;11.392;2023-12-20T11:23:27;6.18;;;1.80;;
32152;SDS011;18656;50.580;11.392;2023-12-20T11:25:56;7.85;;;2.20;;
32152;SDS011;18656;50.580;11.392;2023-12-20T11:28:25;5.25;;;1.70;;
32152;SDS011;18656;50.580;11.392;2023-12-20T11:30:53;2.25;;;1.55;;
32152;SDS011;18656;50.580;11.392;2023-12-20T11:33:22;5.90;;;1.60;;
32152;SDS011;18656;50.580;11.392;2023-12-20T11:35:55;3.70;;;1.65;;
32152;SDS011;18656;50.580;11.392;2023-12-20T11:38:23;2.58;;;1.38;;
32152;SDS011;18656;50.580;11.392;2023-12-20T11:40:51;4.00;;;1.30;;
32152;SDS011;18656;50.580;11.392;2023-12-20T11:43:30;4.53;;;1.42;;
32152;SDS011;18656;50.580;11.392;2023-12-20T11:46:02;4.57;;;1.10;;
32152;SDS011;18656;50.580;11.392;2023-12-20T11:48:31;3.55;;;1.10;;
32152;SDS011;18656;50.580;11.392;2023-12-20T11:50:58;4.55;;;1.38;;
32152;SDS011;18656;50.580;11.392;2023-12-20T11:53:26;5.43;;;1.15;;
32152;SDS011;18656;50.580;11.392;2023-12-20T11:55:54;1.92;;;0.82;;
32152;SDS011;18656;50.580;11.392;2023-12-20T11:58:21;4.35;;;0.90;;
32152;SDS011;18656;50.580;11.392;2023-12-20T12:00:49;2.92;;;1.02;;
32152;SDS011;18656;50.580;11.392;2023-12-20T12:03:18;4.13;;;0.93;;
32152;SDS011;18656;50.580;11.392;2023-12-20T12:05:46;5.43;;;1.05;;
32152;SDS011;18656;50.580;11.392;2023-12-20T12:08:14;2.40;;;1.17;;
32152;SDS011;18656;50.580;11.392;2023-12-20T12:10:41;2.58;;;0.90;;
32152;SDS011;18656;50.580;11.392;2023-12-20T12:13:08;4.78;;;0.80;;
32152;SDS011;18656;50.580;11.392;2023-12-20T12:15:36;4.57;;;1.20;;
32152;SDS011;18656;50.580;11.392;2023-12-20T12:18:03;2.55;;;0.73;;
32152;SDS011;18656;50.580;11.392;2023-12-20T12:20:31;1.95;;;0.60;;
32152;SDS011;18656;50.580;11.392;2023-12-20T12:23:02;2.17;;;1.10;;
32152;SDS011;18656;50.580;11.392;2023-12-20T12:25:30;2.97;;;0.90;;
32152;SDS011;18656;50.580;11.392;2023-12-20T12:27:58;1.88;;;0.70;;
32152;SDS011;18656;50.580;11.392;2023-12-20T12:30:26;1.45;;;0.95;;
32152;SDS011;18656;50.580;11.392;2023-12-20T12:33:03;3.20;;;0.85;;
32152;SDS011;18656;50.580;11.392;2023-12-20T12:35:31;1.88;;;1.10;;
32152;SDS011;18656;50.580;11.392;2023-12-20T12:37:58;1.08;;;0.98;;
32152;SDS011;18656;50.580;11.392;2023-12-20T12:40:26;1.17;;;0.95;;
32152;SDS011;18656;50.580;11.392;2023-12-20T12:42:54;1.67;;;0.85;;
32152;SDS011;18656;50.580;11.392;2023-12-20T12:45:21;2.60;;;0.95;;
32152;SDS011;18656;50.580;11.392;2023-12-20T12:47:48;2.05;;;1.10;;
32152;SDS011;18656;50.580;11.392;2023-12-20T12:50:15;2.50;;;1.10;;
32152;SDS011;18656;50.580;11.392;2023-12-20T12:52:43;2.40;;;1.08;;
32152;SDS011;18656;50.580;11.392;2023-12-20T12:55:10;2.78;;;1.00;;
32152;SDS011;18656;50.580;11.392;2023-12-20T12:57:37;5.78;;;1.23;;
32152;SDS011;18656;50.580;11.392;2023-12-20T13:00:05;2.55;;;0.95;;
32152;SDS011;18656;50.580;11.392;2023-12-20T13:02:35;1.80;;;1.30;;
32152;SDS011;18656;50.580;11.392;2023-12-20T13:05:04;2.63;;;1.20;;
32152;SDS011;18656;50.580;11.392;2023-12-20T13:07:32;2.28;;;1.20;;
32152;SDS011;18656;50.580;11.392;2023-12-20T13:09:59;2.42;;;0.90;;
32152;SDS011;18656;50.580;11.392;2023-12-20T13:12:27;1.50;;;0.95;;
32152;SDS011;18656;50.580;11.392;2023-12-20T13:14:54;6.68;;;1.60;;
32152;SDS011;18656;50.580;11.392;2023-12-20T13:17:21;5.32;;;1.42;;
32152;SDS011;18656;50.580;11.392;2023-12-20T13:19:48;4.75;;;1.02;;
32152;SDS011;18656;50.580;11.392;2023-12-20T13:22:16;2.75;;;1.10;;
32152;SDS011;18656;50.580;11.392;2023-12-20T13:24:43;5.32;;;1.20;;
32152;SDS011;18656;50.580;11.392;2023-12-20T13:27:11;1.13;;;1.00;;
32152;SDS011;18656;50.580;11.392;2023-12-20T13:29:38;3.47;;;1.17;;
32152;SDS011;18656;50.580;11.392;2023-12-20T13:32:06;3.10;;;1.30;;
32152;SDS011;18656;50.580;11.392;2023-12-20T13:34:34;3.33;;;1.20;;
32152;SDS011;18656;50.580;11.392;2023-12-20T13:37:02;2.40;;;1.00;;
32152;SDS011;18656;50.580;11.392;2023-12-20T13:39:31;0.80;;;0.80;;
32152;SDS011;18656;50.580;11.392;2023-12-20T13:41:58;2.80;;;0.68;;
32152;SDS011;18656;50.580;11.392;2023-12-20T13:44:26;1.20;;;0.73;;
32152;SDS011;18656;50.580;11.392;2023-12-20T13:46:54;0.93;;;0.70;;
32152;SDS011;18656;50.580;11.392;2023-12-20T13:49:21;4.68;;;0.93;;
32152;SDS011;18656;50.580;11.392;2023-12-20T13:51:52;1.50;;;0.90;;
32152;SDS011;18656;50.580;11.392;2023-12-20T13:54:21;3.17;;;0.70;;
32152;SDS011;18656;50.580;11.392;2023-12-20T13:56:48;1.75;;;0.80;;
32152;SDS011;18656;50.580;11.392;2023-12-20T13:59:34;1.35;;;0.70;;
32152;SDS011;18656;50.580;11.392;2023-12-20T14:02:01;1.23;;;0.80;;
32152;SDS011;18656;50.580;11.392;2023-12-20T14:04:30;1.30;;;0.73;;
32152;SDS011;18656;50.580;11.392;2023-12-20T14:07:08;2.63;;;0.65;;
32152;SDS011;18656;50.580;11.392;2023-12-20T14:09:38;3.35;;;1.42;;
32152;SDS011;18656;50.580;11.392;2023-12-20T14:12:05;4.35;;;1.00;;
32152;SDS011;18656;50.580;11.392;2023-12-20T14:14:33;2.05;;;0.77;;
32152;SDS011;18656;50.580;11.392;2023-12-20T14:17:00;1.98;;;0.90;;
32152;SDS011;18656;50.580;11.392;2023-12-20T14:19:27;1.85;;;0.60;;
32152;SDS011;18656;50.580;11.392;2023-12-20T14:21:54;2.50;;;0.93;;
32152;SDS011;18656;50.580;11.392;2023-12-20T14:24:22;1.65;;;0.80;;
32152;SDS011;18656;50.580;11.392;2023-12-20T14:26:49;3.05;;;0.80;;
32152;SDS011;18656;50.580;11.392;2023-12-20T14:29:16;4.97;;;1.10;;
32152;SDS011;18656;50.580;11.392;2023-12-20T14:31:43;1.52;;;0.52;;
32152;SDS011;18656;50.580;11.392;2023-12-20T14:34:10;2.75;;;1.25;;
32152;SDS011;18656;50.580;11.392;2023-12-20T14:36:38;1.90;;;0.63;;
32152;SDS011;18656;50.580;11.392;2023-12-20T14:39:05;4.03;;;0.98;;
32152;SDS011;18656;50.580;11.392;2023-12-20T14:41:34;3.83;;;0.93;;
32152;SDS011;18656;50.580;11.392;2023-12-20T14:44:01;3.38;;;1.20;;